Burbank, CA (91501)

12:47 PM PDT on July 30, 2016 (GMT -0700)
Castle Heights | | Change Station

Elev 771 ft 34.18 °N, 118.29 °W | Updated 22 seconds ago

Haze
Haze
88.5 °F
Feels Like 92 °F
N
1.0
Wind Variable Wind from SSE
Gusts 6.0 mph

Today
High -- | Low -- °F
--% Chance of Precip.
Yesterday
High -- | Low -- °F
Precip. -- in
Pressure 29.85 in
Visibility 5.0 miles
Clouds Clear
Heat Index 92 °F
Dew Point 68 °F
Humidity 51%
Rainfall 0.00 in
Snow Depth Not available.
6:03 AM 7:55 PM
Waning Crescent, 11% visible
METAR KBUR 301853Z 14008KT 5SM HZ CLR 29/18 A2989 RMK AO2 SLP106 T02890183
Pressure 29.85 in
Visibility 5.0 miles
Clouds Clear
Heat Index 92 °F
Dew Point 68 °F
Humidity 51%
Rainfall 0.00 in
Snow Depth Not available.
6:03 AM 7:55 PM
Waning Crescent, 11% visible
METAR KBUR 301853Z 14008KT 5SM HZ CLR 29/18 A2989 RMK AO2 SLP106 T02890183

10-Day Weather Forecast

Almanac

Astronomy

Jul. 30, 2016 Rise Set
Actual Time
Civil Twilight
Nautical Twilight
Astronomical Twilight
Moon
Length of Visible Light
Length of Day
Tomorrow will be .
, % of the Moon is Illuminated

Today's Extremes

State Highs State Lows

Community

WunderPhotos

Upload Photos

1,928,628 photos uploaded!

WunderBlog® & News

Nearby

Air Quality

  Air Quality AQ Index Pollutant
Not available.

Snow Depth

Station Depth Elevation

Earthquake Activity

City Distance Mag. Time & Date
Minimum magnitude displayed is 2.5.

Coastal Water Temperatures

Place Temperature

Stations

Nearby Weather Stations

Station Location Temp. Windchill Dew Point Humidity Wind Precip. Elev Updated Type
                   

Watches & Warnings

There are currently no watches in effect.